Time;durP1;ratioP1;P1;durP2;ratioP2;P2;SDS_P1;SDS_P2;PMS_P1;PMS_P2;Temp;Humidity;BMP_temperature;BMP_pressure;BME280_temperature;BME280_humidity;BME280_pressure;Samples;Min_cycle;Max_cycle;Signal;HPM_P1;HPM_P2
2023/09/04 00:01:09;;;;;;;2.33;0.70;;;;;;;21.49;49.79;101177.66;5035079;28;20389;-78
2023/09/04 00:03:36;;;;;;;1.27;0.40;;;;;;;21.55;49.63;101181.28;5034973;28;20396;-77
2023/09/04 00:06:02;;;;;;;2.23;0.70;;;;;;;21.65;49.46;101178.03;5036066;28;20379;-76
2023/09/04 00:08:27;;;;;;;2.03;0.60;;;;;;;21.76;49.23;101178.03;5034750;28;20436;-79
2023/09/04 00:10:58;;;;;;;2.30;0.63;;;;;;;21.67;49.20;101171.34;5036262;28;20445;-79
2023/09/04 00:13:24;;;;;;;1.77;0.60;;;;;;;21.63;49.05;101175.56;5036107;28;20417;-79
2023/09/04 00:15:56;;;;;;;2.53;0.80;;;;;;;21.69;49.13;101169.22;5036579;28;20855;-76
2023/09/04 00:18:22;;;;;;;2.20;0.60;;;;;;;21.69;48.92;101169.22;5034970;28;20904;-77
2023/09/04 00:20:48;;;;;;;2.47;0.80;;;;;;;21.66;48.97;101161.63;5018496;28;20501;-78
2023/09/04 00:23:14;;;;;;;1.77;0.60;;;;;;;21.72;48.86;101165.25;5018416;28;20895;-77
2023/09/04 00:25:39;;;;;;;1.80;0.60;;;;;;;21.52;49.16;101168.28;5034940;28;20724;-77
2023/09/04 00:28:05;;;;;;;1.83;0.60;;;;;;;21.43;49.24;101166.91;5035765;28;20462;-77
2023/09/04 00:30:31;;;;;;;2.25;0.70;;;;;;;21.55;48.93;101160.56;5035748;28;20909;-77
2023/09/04 00:32:57;;;;;;;1.87;0.60;;;;;;;21.56;48.88;101172.97;5013651;28;20384;-77
2023/09/04 00:35:22;;;;;;;2.00;1.00;;;;;;;21.53;48.76;101159.13;5013839;28;20894;-77
2023/09/04 00:37:48;;;;;;;1.98;0.60;;;;;;;21.45;48.78;101157.59;5013703;28;20826;-78
2023/09/04 00:40:22;;;;;;;2.20;0.70;;;;;;;21.40;48.92;101168.22;5013866;28;20855;-77
2023/09/04 00:42:48;;;;;;;2.70;0.93;;;;;;;21.42;48.75;101168.81;5012654;28;20388;-77
2023/09/04 00:45:16;;;;;;;2.57;0.70;;;;;;;21.38;48.43;101157.66;5010591;28;20431;-77
2023/09/04 00:47:44;;;;;;;2.33;0.77;;;;;;;21.29;48.39;101159.06;5010424;28;20518;-77
2023/09/04 00:50:14;;;;;;;1.65;0.50;;;;;;;21.17;48.81;101158.19;4994284;28;20469;-77
2023/09/04 00:52:41;;;;;;;2.45;0.70;;;;;;;21.12;48.77;101158.88;5010779;28;20420;-77
2023/09/04 00:55:09;;;;;;;2.50;0.77;;;;;;;20.92;48.88;101145.69;5010374;28;20426;-77
2023/09/04 00:57:37;;;;;;;1.75;0.60;;;;;;;20.85;48.89;101144.13;4994028;28;20935;-77
2023/09/04 01:00:14;;;;;;;2.60;0.70;;;;;;;20.82;48.97;101153.50;5010518;28;20503;-77
2023/09/04 01:02:42;;;;;;;2.38;0.65;;;;;;;20.76;48.94;101157.94;5010518;28;20770;-77
2023/09/04 01:05:08;;;;;;;2.47;0.73;;;;;;;20.70;48.83;101139.97;5014660;28;20387;-78
2023/09/04 01:07:39;;;;;;;1.90;0.57;;;;;;;20.67;48.72;101142.28;5032450;28;20467;-76
2023/09/04 01:10:07;;;;;;;2.65;0.80;;;;;;;20.64;48.61;101142.75;5031149;28;20406;-76
2023/09/04 01:12:48;;;;;;;1.92;0.55;;;;;;;20.66;48.56;101143.34;5032479;28;20383;-77
2023/09/04 01:15:14;;;;;;;2.55;0.73;;;;;;;20.76;48.28;101144.44;5031350;28;20455;-77
2023/09/04 01:17:42;;;;;;;1.95;0.52;;;;;;;20.59;48.57;101148.78;5032388;28;20386;-76
2023/09/04 01:20:30;;;;;;;2.03;0.68;;;;;;;20.41;48.99;101149.59;5014455;28;20397;-76
2023/09/04 01:22:57;;;;;;;1.90;0.70;;;;;;;20.36;49.08;101150.25;5026493;28;20390;-77
2023/09/04 01:25:41;;;;;;;1.20;0.55;;;;;;;20.31;49.10;101133.16;5032381;28;20444;-77
2023/09/04 01:28:23;;;;;;;1.58;0.70;;;;;;;20.14;49.73;101144.50;5032135;28;20375;-77
2023/09/04 01:31:21;;;;;;;1.70;0.70;;;;;;;20.19;49.69;101136.59;5031555;28;20961;-77
2023/09/04 01:33:51;;;;;;;1.13;0.43;;;;;;;20.07;49.73;101141.06;4993640;28;20429;-76
2023/09/04 01:36:19;;;;;;;1.20;0.50;;;;;;;20.15;49.80;101139.94;5030608;28;20406;-77
2023/09/04 01:38:48;;;;;;;1.27;0.50;;;;;;;20.17;49.74;101148.63;5032208;28;20421;-77
2023/09/04 01:41:16;;;;;;;1.23;0.50;;;;;;;20.09;50.17;101133.59;5030444;28;20382;-77
2023/09/04 01:43:42;;;;;;;1.00;0.60;;;;;;;20.09;50.10;101140.84;5029899;28;20882;-78
2023/09/04 01:46:07;;;;;;;0.80;0.45;;;;;;;20.14;50.00;101132.94;5028680;28;20895;-79
2023/09/04 01:48:34;;;;;;;1.00;0.80;;;;;;;20.15;50.04;101131.84;5028856;28;21059;-78
2023/09/04 01:51:00;;;;;;;0.73;0.50;;;;;;;19.99;50.22;101125.22;5028748;28;20402;-77
2023/09/04 01:53:25;;;;;;;0.90;0.57;;;;;;;19.99;50.32;101127.91;5028191;28;20808;-79
2023/09/04 01:55:51;;;;;;;0.87;0.43;;;;;;;20.02;50.53;101114.84;5027551;28;20409;-78
2023/09/04 01:58:16;;;;;;;0.90;0.57;;;;;;;20.05;50.29;101119.75;5030816;28;20413;-77
2023/09/04 02:00:43;;;;;;;0.90;0.70;;;;;;;20.06;50.19;101112.53;5030175;28;20391;-78
2023/09/04 02:03:09;;;;;;;0.60;0.40;;;;;;;20.02;50.48;101114.00;5031287;28;20371;-80
2023/09/04 02:05:39;;;;;;;0.70;0.50;;;;;;;20.04;50.67;101111.91;5012974;28;20401;-78
2023/09/04 02:08:07;;;;;;;0.63;0.40;;;;;;;20.05;50.49;101095.53;5031551;28;20401;-79
2023/09/04 02:10:35;;;;;;;0.43;0.32;;;;;;;19.94;50.91;101092.78;5031547;28;20816;-77
2023/09/04 02:13:01;;;;;;;0.55;0.43;;;;;;;19.84;50.93;101095.97;5029639;28;20426;-77
2023/09/04 02:15:30;;;;;;;0.50;0.32;;;;;;;19.80;51.17;101100.13;5013721;28;20460;-78
2023/09/04 02:17:56;;;;;;;0.53;0.30;;;;;;;19.92;50.99;101111.81;5013626;28;20382;-78
2023/09/04 02:20:22;;;;;;;0.40;0.30;;;;;;;20.00;50.67;101114.22;5029989;28;20542;-77
2023/09/04 02:22:47;;;;;;;0.70;0.52;;;;;;;20.00;50.82;101108.81;5013591;28;20429;-77
2023/09/04 02:25:13;;;;;;;0.70;0.50;;;;;;;20.00;50.64;101108.00;5013496;28;20406;-77
2023/09/04 02:27:39;;;;;;;0.47;0.30;;;;;;;19.93;51.02;101104.56;5013549;28;20387;-76
2023/09/04 02:30:07;;;;;;;1.20;0.80;;;;;;;19.93;50.85;101109.94;5029596;28;20421;-77
2023/09/04 02:32:33;;;;;;;0.35;0.35;;;;;;;19.93;50.94;101108.06;5013266;28;20390;-78
2023/09/04 02:34:59;;;;;;;0.68;0.60;;;;;;;19.93;50.86;101088.41;5029568;28;20409;-77
2023/09/04 02:37:26;;;;;;;0.55;0.40;;;;;;;19.91;50.90;101091.34;5029821;28;20390;-76
2023/09/04 02:39:52;;;;;;;0.20;0.20;;;;;;;19.82;51.23;101082.72;5029618;28;20386;-76
2023/09/04 02:42:21;;;;;;;0.43;0.40;;;;;;;19.86;50.91;101081.25;5013287;28;20444;-80
2023/09/04 02:44:46;;;;;;;0.50;0.40;;;;;;;19.88;51.06;101078.34;5030550;28;20386;-80
2023/09/04 02:47:15;;;;;;;0.30;0.30;;;;;;;19.88;50.92;101080.19;5030539;28;20374;-79
2023/09/04 02:49:42;;;;;;;0.38;0.38;;;;;;;19.85;50.97;101078.78;5030631;28;20568;-78
2023/09/04 02:52:08;;;;;;;0.32;0.30;;;;;;;19.92;50.78;101073.34;5030762;28;20425;-77
2023/09/04 02:54:33;;;;;;;0.40;0.40;;;;;;;19.87;51.17;101079.38;5030841;28;20389;-80
2023/09/04 02:56:59;;;;;;;0.25;0.20;;;;;;;19.93;50.91;101072.28;5030499;28;20424;-80
2023/09/04 02:59:25;;;;;;;0.20;0.20;;;;;;;19.87;50.93;101076.69;5013012;28;20398;-80
2023/09/04 03:01:50;;;;;;;0.35;0.30;;;;;;;19.64;51.46;101083.50;5030598;28;20390;-79
2023/09/04 03:04:16;;;;;;;0.23;0.23;;;;;;;19.62;51.55;101074.81;5030426;28;20386;-79
2023/09/04 03:06:42;;;;;;;0.32;0.20;;;;;;;19.79;51.30;101074.28;5013007;28;20385;-80
2023/09/04 03:09:08;;;;;;;0.20;0.20;;;;;;;19.67;51.22;101068.78;5029400;28;20475;-80
2023/09/04 03:11:33;;;;;;;0.20;0.20;;;;;;;19.63;51.51;101054.16;5012943;28;20407;-79
2023/09/04 03:13:59;;;;;;;0.50;0.40;;;;;;;19.50;51.98;101060.47;5012814;28;20845;-79
2023/09/04 03:16:25;;;;;;;0.30;0.20;;;;;;;19.39;52.27;101061.16;5029348;28;20452;-80
2023/09/04 03:18:51;;;;;;;0.50;0.30;;;;;;;19.30;52.43;101063.31;5012633;28;20714;-79
2023/09/04 03:21:16;;;;;;;0.32;0.30;;;;;;;19.44;52.14;101067.53;5030730;28;20774;-78
2023/09/04 03:23:42;;;;;;;0.63;0.30;;;;;;;19.37;52.50;101074.00;5030304;28;20386;-78
2023/09/04 03:26:07;;;;;;;0.35;0.30;;;;;;;19.43;52.04;101062.41;5029217;28;20393;-78
2023/09/04 03:28:33;;;;;;;0.37;0.33;;;;;;;19.54;51.68;101063.53;5029035;28;20401;-77
2023/09/04 03:30:59;;;;;;;0.30;0.20;;;;;;;19.71;51.36;101078.06;5030058;28;20413;-79
2023/09/04 03:33:24;;;;;;;0.47;0.30;;;;;;;19.67;51.34;101085.75;5028778;28;20739;-77
2023/09/04 03:35:50;;;;;;;0.40;0.40;;;;;;;19.68;51.51;101091.97;5012379;28;20382;-77
2023/09/04 03:38:16;;;;;;;0.30;0.20;;;;;;;19.57;51.71;101085.44;5028925;28;20730;-78
2023/09/04 03:40:41;;;;;;;0.70;0.40;;;;;;;19.36;52.20;101089.34;5030488;28;20477;-80
2023/09/04 03:43:07;;;;;;;0.50;0.30;;;;;;;19.41;51.84;101089.50;5012325;28;20382;-78
2023/09/04 03:45:34;;;;;;;0.57;0.30;;;;;;;19.32;52.32;101081.91;5012157;28;20774;-78
2023/09/04 03:48:01;;;;;;;0.60;0.40;;;;;;;19.33;52.29;101079.00;5003760;28;20497;-79
2023/09/04 03:50:27;;;;;;;0.57;0.38;;;;;;;19.35;52.18;101089.53;5028917;28;20426;-79
2023/09/04 03:52:53;;;;;;;0.70;0.50;;;;;;;19.41;52.16;101094.03;5027970;28;20391;-79
2023/09/04 03:55:19;;;;;;;0.40;0.25;;;;;;;19.35;52.04;101094.91;5016446;28;20391;-78
2023/09/04 03:57:51;;;;;;;0.20;0.20;;;;;;;19.44;51.86;101088.22;5010202;28;20402;-78
2023/09/04 04:00:17;;;;;;;0.50;0.40;;;;;;;19.32;52.34;101098.88;5005162;28;20466;-78
2023/09/04 04:02:44;;;;;;;0.52;0.40;;;;;;;19.29;52.35;101096.63;5023868;28;20924;-77
2023/09/04 04:05:11;;;;;;;0.40;0.30;;;;;;;19.47;51.84;101095.84;5011127;28;20428;-77
2023/09/04 04:07:37;;;;;;;0.30;0.22;;;;;;;19.47;51.83;101096.69;5028836;28;20402;-77
2023/09/04 04:10:04;;;;;;;0.20;0.20;;;;;;;19.37;52.00;101092.84;5029117;28;20900;-77
2023/09/04 04:12:31;;;;;;;0.50;0.40;;;;;;;19.38;52.15;101102.56;5027368;28;20449;-78
2023/09/04 04:15:03;;;;;;;0.77;0.50;;;;;;;19.24;52.35;101099.94;5011320;28;20382;-79
2023/09/04 04:17:29;;;;;;;0.50;0.40;;;;;;;19.42;52.07;101103.75;5029749;28;20394;-80
2023/09/04 04:19:55;;;;;;;0.50;0.27;;;;;;;19.29;52.43;101104.69;5033049;28;20818;-79
2023/09/04 04:22:21;;;;;;;0.73;0.50;;;;;;;19.38;52.28;101105.25;5015984;28;20422;-78
2023/09/04 04:24:50;;;;;;;0.43;0.35;;;;;;;19.36;52.05;101112.72;5014431;28;20909;-86
2023/09/04 04:27:16;;;;;;;0.55;0.43;;;;;;;19.33;52.20;101107.75;5014033;28;20481;-79
2023/09/04 04:29:48;;;;;;;0.57;0.40;;;;;;;19.39;52.11;101110.41;5016207;28;20518;-81
2023/09/04 04:32:14;;;;;;;0.45;0.30;;;;;;;19.43;51.98;101106.22;5020513;28;20393;-81
2023/09/04 04:34:41;;;;;;;0.30;0.20;;;;;;;19.39;52.14;101115.78;5006104;28;20381;-80
2023/09/04 04:37:07;;;;;;;0.37;0.20;;;;;;;19.50;51.79;101111.56;5018974;28;20388;-81
2023/09/04 04:39:32;;;;;;;0.45;0.45;;;;;;;19.63;51.34;101113.31;4997095;28;20423;-81
2023/09/04 04:41:58;;;;;;;0.50;0.40;;;;;;;19.71;51.25;101112.19;5013340;28;20386;-82
2023/09/04 04:44:23;;;;;;;0.33;0.30;;;;;;;19.72;51.32;101119.25;5013783;28;20384;-79
2023/09/04 04:46:49;;;;;;;0.57;0.40;;;;;;;19.68;51.52;101110.78;5013662;28;20388;-82
2023/09/04 04:49:21;;;;;;;0.30;0.20;;;;;;;19.65;51.71;101116.59;5013059;28;20462;-82
2023/09/04 04:51:47;;;;;;;0.35;0.30;;;;;;;19.85;51.22;101119.13;4995827;28;20384;-80
2023/09/04 04:54:12;;;;;;;0.60;0.60;;;;;;;19.74;51.50;101127.94;5014010;28;20392;-80
2023/09/04 04:56:39;;;;;;;0.20;0.20;;;;;;;19.67;51.83;101126.09;5013095;28;20733;-80
2023/09/04 04:59:07;;;;;;;0.20;0.20;;;;;;;19.79;51.63;101128.06;5013902;28;20415;-82
2023/09/04 05:01:33;;;;;;;0.35;0.20;;;;;;;19.89;51.32;101128.41;4995431;28;20484;-84
2023/09/04 05:03:58;;;;;;;0.20;0.20;;;;;;;19.89;51.58;101138.34;5013412;28;20471;-82
2023/09/04 05:06:24;;;;;;;0.63;0.63;;;;;;;19.90;51.47;101137.28;4995451;28;20392;-80
2023/09/04 05:08:50;;;;;;;0.20;0.20;;;;;;;19.79;51.89;101128.06;5000547;28;20533;-84
2023/09/04 05:11:16;;;;;;;0.68;0.47;;;;;;;19.70;51.82;101130.22;5004352;28;20913;-81
2023/09/04 05:13:41;;;;;;;0.50;0.35;;;;;;;19.81;51.69;101126.81;5006287;28;20406;-82
2023/09/04 05:16:07;;;;;;;0.70;0.40;;;;;;;19.91;51.53;101134.38;5023528;28;20908;-82
2023/09/04 05:18:33;;;;;;;0.50;0.30;;;;;;;19.84;51.95;101134.47;5028471;28;20390;-83
2023/09/04 05:20:59;;;;;;;0.90;0.55;;;;;;;19.70;52.30;101130.22;5029567;28;20397;-82
2023/09/04 05:23:25;;;;;;;1.10;0.60;;;;;;;19.67;52.29;101136.84;5030433;28;20386;-82
2023/09/04 05:25:52;;;;;;;0.30;0.27;;;;;;;19.62;52.62;101133.16;5029655;28;20424;-81
2023/09/04 05:28:18;;;;;;;0.50;0.30;;;;;;;19.73;52.31;101135.16;5032718;28;20540;-81
2023/09/04 05:30:44;;;;;;;0.60;0.40;;;;;;;19.53;53.08;101131.81;5031751;28;20902;-81
2023/09/04 05:33:09;;;;;;;0.30;0.22;;;;;;;19.39;53.46;101133.75;5032282;28;20382;-81
2023/09/04 05:35:35;;;;;;;0.70;0.33;;;;;;;19.39;53.55;101137.28;5031177;28;20497;-81
2023/09/04 05:38:01;;;;;;;0.70;0.30;;;;;;;19.25;54.24;101141.94;5031105;28;20413;-82
2023/09/04 05:40:27;;;;;;;0.38;0.30;;;;;;;19.45;53.69;101138.28;5032311;28;20409;-82
2023/09/04 05:42:53;;;;;;;0.55;0.35;;;;;;;19.44;53.98;101142.81;5014263;28;20762;-82
2023/09/04 05:45:19;;;;;;;0.30;0.30;;;;;;;19.48;53.92;101143.19;5032030;28;20374;-82
2023/09/04 05:47:48;;;;;;;0.45;0.40;;;;;;;19.59;53.88;101147.88;5032065;28;20489;-82
2023/09/04 05:50:13;;;;;;;0.52;0.40;;;;;;;19.81;53.33;101158.28;5032348;28;21184;-81
2023/09/04 05:52:39;;;;;;;0.60;0.30;;;;;;;19.95;52.93;101157.13;5014267;28;20390;-82
2023/09/04 05:55:05;;;;;;;1.00;0.40;;;;;;;19.77;53.62;101163.28;5031915;28;20390;-82
2023/09/04 05:57:31;;;;;;;0.57;0.32;;;;;;;19.64;54.03;101166.03;5032386;28;20501;-82
2023/09/04 05:59:59;;;;;;;0.77;0.40;;;;;;;19.40;54.79;101152.38;5031130;28;20382;-81
2023/09/04 06:02:25;;;;;;;0.63;0.40;;;;;;;19.65;54.07;101155.06;5014453;28;20375;-80
2023/09/04 06:04:51;;;;;;;0.30;0.22;;;;;;;19.53;54.54;101142.56;5014464;28;20387;-81
2023/09/04 06:07:16;;;;;;;0.37;0.30;;;;;;;19.44;54.73;101148.19;5032622;28;20479;-84
2023/09/04 06:09:44;;;;;;;0.37;0.30;;;;;;;19.45;54.88;101155.22;5031206;28;20413;-80
2023/09/04 06:12:11;;;;;;;0.75;0.35;;;;;;;19.71;54.30;101150.66;5030474;28;20387;-82
2023/09/04 06:14:41;;;;;;;0.55;0.30;;;;;;;19.67;54.02;101152.16;5001974;28;20988;-84
2023/09/04 06:17:07;;;;;;;0.60;0.40;;;;;;;19.61;54.51;101159.25;5001961;28;20885;-80
2023/09/04 06:19:32;;;;;;;0.25;0.20;;;;;;;19.85;53.97;101160.31;5009737;28;20391;-83
2023/09/04 06:21:58;;;;;;;0.50;0.30;;;;;;;20.07;53.75;101162.59;5003285;28;20726;-81
2023/09/04 06:24:24;;;;;;;0.50;0.50;;;;;;;19.72;54.42;101168.47;5004816;28;20402;-80
2023/09/04 06:26:51;;;;;;;1.00;0.50;;;;;;;19.73;54.56;101162.06;4984475;28;20398;-82
2023/09/04 06:29:18;;;;;;;1.05;0.40;;;;;;;19.61;55.00;101177.25;4965694;28;20402;-82
2023/09/04 06:31:45;;;;;;;0.60;0.40;;;;;;;19.71;55.15;101171.38;4979146;28;20783;-82
2023/09/04 06:34:11;;;;;;;0.20;0.20;;;;;;;19.81;54.69;101183.31;4973696;28;20552;-81
2023/09/04 06:36:37;;;;;;;0.90;0.40;;;;;;;19.80;54.85;101170.91;4975954;28;20398;-89
2023/09/04 06:39:08;;;;;;;1.20;0.60;;;;;;;19.90;54.97;101191.94;4992971;28;20408;-89
2023/09/04 06:41:34;;;;;;;0.80;0.35;;;;;;;19.70;55.49;101186.69;4992086;28;20436;-85
2023/09/04 06:44:02;;;;;;;0.50;0.30;;;;;;;19.67;55.72;101189.81;4976068;28;20481;-81
2023/09/04 06:46:28;;;;;;;0.77;0.40;;;;;;;19.74;55.70;101198.69;4989600;28;20457;-85
2023/09/04 06:48:54;;;;;;;0.60;0.40;;;;;;;19.80;55.75;101187.03;4994256;28;20388;-81
2023/09/04 06:51:20;;;;;;;0.50;0.30;;;;;;;19.51;56.76;101198.41;4973009;28;20438;-82
2023/09/04 06:53:47;;;;;;;0.28;0.20;;;;;;;19.50;56.55;101192.22;4973266;28;20398;-79
2023/09/04 06:56:12;;;;;;;0.80;0.32;;;;;;;19.66;56.25;101183.63;4990052;28;20401;-80
2023/09/04 06:58:38;;;;;;;0.40;0.20;;;;;;;19.66;56.63;101191.69;5005576;28;20927;-78
2023/09/04 07:01:05;;;;;;;0.30;0.20;;;;;;;19.66;56.91;101198.91;5009082;28;20396;-80
2023/09/04 07:03:31;;;;;;;0.75;0.40;;;;;;;19.67;57.07;101196.00;5026940;28;20406;-81
2023/09/04 07:05:57;;;;;;;0.30;0.20;;;;;;;19.66;57.55;101196.22;5030915;28;20382;-78
2023/09/04 07:08:24;;;;;;;0.52;0.30;;;;;;;19.64;57.74;101201.00;5029607;28;20387;-78
2023/09/04 07:10:51;;;;;;;0.50;0.30;;;;;;;19.50;58.30;101194.91;5030576;28;20504;-78
2023/09/04 07:13:18;;;;;;;0.45;0.30;;;;;;;19.56;58.10;101206.66;5029494;28;20390;-81
2023/09/04 07:15:45;;;;;;;0.52;0.35;;;;;;;19.71;57.30;101204.47;5029376;28;20386;-80
2023/09/04 07:18:11;;;;;;;0.60;0.40;;;;;;;19.40;58.28;101210.69;5030553;28;20448;-81
2023/09/04 07:20:38;;;;;;;0.50;0.30;;;;;;;19.64;57.37;101206.38;5029181;28;20397;-80
2023/09/04 07:23:04;;;;;;;0.73;0.40;;;;;;;19.80;57.16;101210.44;5045987;22;20437;-81
2023/09/04 07:25:32;;;;;;;0.93;0.50;;;;;;;19.80;57.09;101205.88;5050267;28;20380;-86
2023/09/04 07:27:58;;;;;;;0.20;0.20;;;;;;;19.78;56.88;101202.59;5049735;28;20815;-79
2023/09/04 07:30:23;;;;;;;0.57;0.33;;;;;;;19.85;56.83;101199.84;5050217;28;20924;-78
2023/09/04 07:32:49;;;;;;;0.70;0.37;;;;;;;19.82;56.82;101208.34;5050691;28;20376;-77
2023/09/04 07:35:15;;;;;;;0.88;0.45;;;;;;;19.67;57.25;101214.03;5065740;28;20397;-78
2023/09/04 07:37:40;;;;;;;0.80;0.43;;;;;;;19.65;57.39;101222.31;5050260;28;20401;-77
2023/09/04 07:40:08;;;;;;;0.47;0.28;;;;;;;19.75;57.21;101219.16;5049880;28;20395;-78
2023/09/04 07:42:36;;;;;;;0.65;0.40;;;;;;;19.68;57.40;101223.75;5050136;28;20385;-77
2023/09/04 07:45:02;;;;;;;0.63;0.40;;;;;;;20.02;56.69;101216.25;5050217;28;20385;-77
2023/09/04 07:47:27;;;;;;;0.60;0.40;;;;;;;20.10;56.42;101224.06;5048998;28;20771;-77
2023/09/04 07:49:53;;;;;;;0.83;0.40;;;;;;;20.15;56.34;101232.28;5049975;28;20451;-77
2023/09/04 07:52:20;;;;;;;1.02;0.50;;;;;;;19.80;57.16;101226.56;5050830;28;20439;-77
2023/09/04 07:54:48;;;;;;;0.40;0.30;;;;;;;19.72;57.52;101232.22;5052961;28;20858;-78
2023/09/04 07:57:17;;;;;;;1.00;0.50;;;;;;;19.79;57.40;101235.69;5052073;28;20403;-80
2023/09/04 07:59:43;;;;;;;0.50;0.30;;;;;;;20.12;56.90;101232.72;5052182;28;20388;-78
2023/09/04 08:02:08;;;;;;;0.47;0.30;;;;;;;20.15;56.91;101239.53;5069532;28;20392;-77
2023/09/04 08:04:34;;;;;;;0.20;0.20;;;;;;;19.90;57.70;101234.16;5053569;28;20886;-78
2023/09/04 08:06:59;;;;;;;0.50;0.30;;;;;;;19.87;57.74;101238.13;5053219;28;20376;-77
2023/09/04 08:09:25;;;;;;;0.70;0.40;;;;;;;20.09;57.30;101240.41;5053619;28;20373;-77
2023/09/04 08:11:51;;;;;;;0.40;0.40;;;;;;;20.16;57.26;101249.25;5053922;28;20779;-77
2023/09/04 08:14:16;;;;;;;0.28;0.20;;;;;;;19.98;57.64;101252.72;5052908;28;20479;-81
2023/09/04 08:16:42;;;;;;;0.40;0.30;;;;;;;20.02;57.69;101244.00;5036071;28;20393;-78
2023/09/04 08:19:08;;;;;;;0.37;0.20;;;;;;;20.20;57.21;101250.47;5052358;28;20529;-76
2023/09/04 08:21:34;;;;;;;0.40;0.20;;;;;;;20.18;57.08;101239.91;5053731;28;20468;-79
2023/09/04 08:23:59;;;;;;;0.43;0.40;;;;;;;20.09;57.56;101254.69;5053864;28;20404;-78
2023/09/04 08:26:25;;;;;;;0.50;0.20;;;;;;;20.13;57.36;101241.63;5052298;28;20380;-78
2023/09/04 08:28:50;;;;;;;0.30;0.20;;;;;;;20.12;57.43;101235.41;5052321;28;20434;-78
2023/09/04 08:31:16;;;;;;;0.40;0.30;;;;;;;20.27;57.22;101237.75;5053575;28;20485;-78
2023/09/04 08:33:41;;;;;;;0.40;0.30;;;;;;;20.31;57.01;101255.16;5053471;28;20416;-79
2023/09/04 08:36:07;;;;;;;0.45;0.30;;;;;;;20.26;57.25;101249.59;5053118;28;20384;-78
2023/09/04 08:38:32;;;;;;;0.50;0.40;;;;;;;20.38;57.07;101250.53;5053383;28;20573;-79
2023/09/04 08:41:04;;;;;;;0.30;0.20;;;;;;;20.48;56.96;101250.00;5051882;28;20427;-79
2023/09/04 08:43:36;;;;;;;1.20;0.60;;;;;;;20.44;57.13;101241.53;5058389;28;20412;-79
2023/09/04 08:46:05;;;;;;;0.93;0.43;;;;;;;20.75;56.45;101247.06;5030034;28;20435;-78
2023/09/04 08:48:32;;;;;;;1.00;0.50;;;;;;;20.88;56.11;101246.06;5032652;28;20419;-79
2023/09/04 08:50:58;;;;;;;0.90;0.30;;;;;;;20.96;56.12;101245.78;5050050;28;20780;-80
2023/09/04 08:53:25;;;;;;;1.50;0.70;;;;;;;21.23;55.58;101248.97;5034333;28;20392;-81
2023/09/04 08:55:52;;;;;;;1.27;0.50;;;;;;;21.28;55.68;101245.56;5050484;28;20451;-78
2023/09/04 08:58:17;;;;;;;0.70;0.38;;;;;;;21.54;54.88;101245.22;5052712;28;20391;-80
2023/09/04 09:00:46;;;;;;;0.53;0.33;;;;;;;21.76;54.56;101256.28;5035175;28;20787;-79
2023/09/04 09:03:14;;;;;;;0.80;0.30;;;;;;;21.78;54.54;101250.66;5051368;28;20910;-79
2023/09/04 09:05:43;;;;;;;0.30;0.20;;;;;;;21.74;54.44;101254.91;5051101;28;20859;-78
2023/09/04 09:08:09;;;;;;;0.30;0.20;;;;;;;21.93;54.12;101247.53;5052028;28;20384;-77
2023/09/04 09:10:35;;;;;;;0.50;0.30;;;;;;;22.01;53.63;101246.38;5034814;28;20405;-79
2023/09/04 09:13:01;;;;;;;0.60;0.37;;;;;;;22.20;53.17;101250.63;5034768;28;20395;-78
2023/09/04 09:15:30;;;;;;;0.55;0.40;;;;;;;22.55;52.68;101243.59;5052359;28;20377;-78
2023/09/04 09:17:57;;;;;;;0.95;0.50;;;;;;;22.80;51.42;101246.84;5051613;28;20472;-77
2023/09/04 09:20:34;;;;;;;0.73;0.40;;;;;;;22.79;50.58;101256.00;5045366;28;20392;-78
2023/09/04 09:23:01;;;;;;;0.70;0.43;;;;;;;22.78;50.11;101254.34;5049202;28;20488;-80
2023/09/04 09:25:29;;;;;;;0.80;0.47;;;;;;;22.99;49.90;101255.59;5052617;28;20423;-77
2023/09/04 09:28:00;;;;;;;0.47;0.30;;;;;;;22.89;48.84;101263.50;5052662;28;20388;-78
2023/09/04 09:30:31;;;;;;;0.30;0.30;;;;;;;22.85;48.69;101262.31;5050899;28;20926;-77
2023/09/04 09:32:57;;;;;;;0.73;0.50;;;;;;;23.08;48.85;101248.78;5029635;28;20493;-81
2023/09/04 09:35:23;;;;;;;0.55;0.45;;;;;;;23.46;48.22;101250.03;5050788;28;20739;-78
2023/09/04 09:37:48;;;;;;;0.60;0.40;;;;;;;23.71;47.92;101242.59;5051742;28;20459;-77
2023/09/04 09:40:14;;;;;;;0.50;0.30;;;;;;;23.60;47.59;101245.13;5051332;28;20384;-78
2023/09/04 09:42:41;;;;;;;0.55;0.35;;;;;;;23.90;47.02;101251.34;5051233;28;20384;-79
2023/09/04 09:45:07;;;;;;;0.80;0.40;;;;;;;23.85;46.28;101257.50;5034703;28;20485;-79
2023/09/04 09:47:33;;;;;;;0.30;0.30;;;;;;;23.85;45.65;101246.66;5052259;28;20471;-79
2023/09/04 09:50:00;;;;;;;0.55;0.38;;;;;;;24.05;45.58;101246.97;5052088;28;20396;-78
2023/09/04 09:52:26;;;;;;;0.30;0.30;;;;;;;24.15;45.08;101243.63;5052134;28;20381;-79
2023/09/04 09:54:52;;;;;;;0.57;0.40;;;;;;;24.12;44.89;101240.59;5067495;28;20392;-80
2023/09/04 09:57:18;;;;;;;0.40;0.30;;;;;;;24.21;44.77;101248.03;5050788;28;20932;-80
2023/09/04 09:59:49;;;;;;;0.50;0.40;;;;;;;24.25;43.93;101253.78;5050754;28;20396;-80
2023/09/04 10:02:27;;;;;;;0.20;0.20;;;;;;;24.35;43.75;101253.13;5050860;28;20385;-78
2023/09/04 10:04:54;;;;;;;0.40;0.40;;;;;;;24.39;43.18;101260.47;5050747;28;20884;-78
2023/09/04 10:07:25;;;;;;;0.20;0.20;;;;;;;24.18;44.07;101270.22;5051781;28;20956;-79
2023/09/04 10:09:59;;;;;;;0.20;0.20;;;;;;;24.36;43.97;101269.13;5050486;28;20487;-78
2023/09/04 10:12:41;;;;;;;0.50;0.40;;;;;;;24.21;44.09;101266.19;5050575;28;20450;-78
2023/09/04 10:15:10;;;;;;;0.50;0.50;;;;;;;24.56;44.13;101268.63;5050017;28;20399;-77
2023/09/04 10:17:58;;;;;;;0.38;0.38;;;;;;;24.28;44.16;101272.25;5033356;28;20383;-78
2023/09/04 10:20:26;;;;;;;0.30;0.30;;;;;;;24.15;44.60;101264.47;5051526;28;20450;-79
2023/09/04 10:23:02;;;;;;;0.30;0.30;;;;;;;24.29;44.71;101259.50;5051641;28;20439;-79
2023/09/04 10:25:41;;;;;;;0.20;0.20;;;;;;;24.09;45.41;101260.03;5050370;28;20388;-79
2023/09/04 10:28:11;;;;;;;0.28;0.28;;;;;;;24.00;46.42;101265.03;5050337;28;20395;-76
2023/09/04 10:30:42;;;;;;;0.32;0.30;;;;;;;23.88;46.19;101270.53;5051311;28;20411;-78
2023/09/04 10:33:08;;;;;;;0.20;0.20;;;;;;;23.90;46.42;101264.88;5033531;28;20916;-77
2023/09/04 10:35:34;;;;;;;0.25;0.25;;;;;;;24.01;46.73;101269.41;5033615;28;20431;-78
2023/09/04 10:38:00;;;;;;;0.35;0.35;;;;;;;23.93;46.39;101278.75;5033619;28;20420;-80
2023/09/04 10:40:28;;;;;;;0.20;0.20;;;;;;;23.97;46.71;101270.97;5033578;28;20913;-79
2023/09/04 10:42:56;;;;;;;0.30;0.30;;;;;;;24.19;46.29;101279.97;5050114;28;20395;-78
2023/09/04 10:45:25;;;;;;;0.20;0.20;;;;;;;24.22;46.33;101275.97;5049922;28;20400;-78
2023/09/04 10:47:51;;;;;;;0.30;0.30;;;;;;;23.69;45.67;101291.56;5051328;28;20372;-77
2023/09/04 10:50:30;;;;;;;0.20;0.20;;;;;;;23.36;46.38;101286.91;5049757;28;20439;-77
2023/09/04 10:53:04;;;;;;;0.32;0.32;;;;;;;23.23;46.64;101294.25;5051020;28;20465;-79
2023/09/04 10:55:30;;;;;;;0.25;0.25;;;;;;;23.47;46.36;101280.63;5049979;28;20450;-77
2023/09/04 10:58:00;;;;;;;0.20;0.20;;;;;;;23.65;45.79;101288.53;5049469;28;20469;-78
2023/09/04 11:00:30;;;;;;;0.43;0.43;;;;;;;23.70;45.33;101287.81;5050749;28;20388;-77
2023/09/04 11:02:58;;;;;;;0.30;0.30;;;;;;;23.87;45.26;101292.44;5050419;28;20483;-77
2023/09/04 11:05:24;;;;;;;0.20;0.20;;;;;;;23.84;45.06;101293.72;5050694;28;20377;-78
2023/09/04 11:07:50;;;;;;;0.40;0.40;;;;;;;23.66;45.61;101294.78;5050718;28;20469;-79
2023/09/04 11:10:32;;;;;;;0.10;0.10;;;;;;;23.70;45.85;101306.75;5050802;28;20499;-78
2023/09/04 11:13:00;;;;;;;0.28;0.28;;;;;;;23.81;45.36;101308.59;5050494;28;20450;-78
2023/09/04 11:15:26;;;;;;;0.30;0.30;;;;;;;23.69;45.73;101307.00;5050572;28;20422;-79
2023/09/04 11:17:52;;;;;;;0.40;0.30;;;;;;;23.69;45.20;101312.41;5050605;28;20810;-77
2023/09/04 11:20:24;;;;;;;0.45;0.30;;;;;;;23.77;45.06;101315.53;5050457;28;20380;-78
2023/09/04 11:22:49;;;;;;;0.20;0.20;;;;;;;23.77;44.83;101320.09;5049054;28;20400;-78
2023/09/04 11:25:18;;;;;;;0.13;0.13;;;;;;;23.76;44.64;101316.59;5050634;28;20388;-78